CheckWX is a tool to help pilots better visualize weather data.  It is not intended as a substitute for an official pre-flight weather briefing.

14:21:48 UTC

EVRA METAR
Riga International Airport
Riga, Latvia
Current

1 hour ago

EVRA 161320Z 23004KT 180V260 9999 BKN020 FEW035CB 17/12 Q1005 NOSIG
Observed
Jul-16 @ 13:20 UTC
Wind
  • 230° at 4 KTS
Visibility
10,000+ meters
Flight Rules
MVFR
Cloud Levels
  • Broken at 2,000' AGL
  • Few at 3,500' AGL
Temperature
17°C / 63°F
Dewpoint
12°C / 54°F
Humidity
73%
Altimeter
29.68" Hg
Pressure
1004.92 hPa
Previous

2 hours ago

EVRA 161250Z 17004KT 130V240 9999 SCT015 17/12 Q1005 NOSIG
Observed
Jul-16 @ 12:50 UTC
Wind
  • 170° at 4 KTS
Visibility
10,000+ meters
Flight Rules
VFR
Cloud Levels
  • Scattered at 1,500' AGL
Temperature
17°C / 63°F
Dewpoint
12°C / 54°F
Humidity
73%
Altimeter
29.68" Hg
Pressure
1004.92 hPa
Previous

2 hours ago

EVRA 161220Z 18006KT 150V210 9999 SCT014 FEW040CB 16/12 Q1005 NOSIG
Observed
Jul-16 @ 12:20 UTC
Wind
  • 180° at 6 KTS
Visibility
10,000+ meters
Flight Rules
VFR
Cloud Levels
  • Scattered at 1,400' AGL
  • Few at 4,000' AGL
Temperature
16°C / 61°F
Dewpoint
12°C / 54°F
Humidity
77%
Altimeter
29.68" Hg
Pressure
1004.92 hPa